Time;durP1;ratioP1;P1;durP2;ratioP2;P2;SDS_P1;SDS_P2;PMS_P1;PMS_P2;Temp;Humidity;BMP_temperature;BMP_pressure;BME280_temperature;BME280_humidity;BME280_pressure;Samples;Min_cycle;Max_cycle;Signal;HPM_P1;HPM_P2
2023/10/03 00:02:04;;;;;;;29.43;13.13;;;;;;;16.04;100.00;98285.16;5073425;28;20231;-79
2023/10/03 00:04:31;;;;;;;27.77;12.53;;;;;;;16.06;100.00;98289.53;5074923;28;20242;-80
2023/10/03 00:06:57;;;;;;;31.07;13.13;;;;;;;16.12;100.00;98283.66;5075605;28;20274;-80
2023/10/03 00:09:24;;;;;;;29.43;13.77;;;;;;;16.13;100.00;98280.81;5075137;28;20238;-80
2023/10/03 00:11:51;;;;;;;31.00;13.07;;;;;;;16.10;100.00;98283.78;5074681;28;20259;-80
2023/10/03 00:14:19;;;;;;;27.53;12.83;;;;;;;16.08;100.00;98286.56;5075440;28;20821;-80
2023/10/03 00:16:45;;;;;;;29.13;13.03;;;;;;;16.08;100.00;98277.72;5074695;28;20223;-80
2023/10/03 00:19:12;;;;;;;34.70;13.73;;;;;;;16.03;100.00;98279.97;5074755;28;20257;-80
2023/10/03 00:21:38;;;;;;;26.47;12.63;;;;;;;16.02;100.00;98280.09;5074126;28;20775;-80
2023/10/03 00:24:06;;;;;;;25.33;11.83;;;;;;;15.98;100.00;98286.66;5074529;28;20215;-80
2023/10/03 00:26:33;;;;;;;27.13;12.17;;;;;;;15.93;100.00;98279.09;5074448;28;20207;-80
2023/10/03 00:29:00;;;;;;;31.20;13.27;;;;;;;15.93;100.00;98272.91;5075042;28;20231;-80
2023/10/03 00:31:29;;;;;;;26.57;12.93;;;;;;;15.90;100.00;98267.84;5074284;28;20310;-80
2023/10/03 00:33:56;;;;;;;33.50;14.13;;;;;;;15.94;100.00;98269.28;5074534;28;20207;-80
2023/10/03 00:36:24;;;;;;;30.70;14.07;;;;;;;15.98;100.00;98273.34;5074157;28;20232;-80
2023/10/03 00:38:52;;;;;;;28.60;13.43;;;;;;;15.93;100.00;98267.56;5074691;28;20257;-80
2023/10/03 00:41:19;;;;;;;30.40;14.13;;;;;;;15.90;100.00;98265.19;5074276;28;20334;-80
2023/10/03 00:43:58;;;;;;;30.03;13.23;;;;;;;15.88;100.00;98264.50;5074258;28;20257;-80
2023/10/03 00:46:26;;;;;;;32.03;13.53;;;;;;;15.82;100.00;98254.38;5074491;28;20203;-80
2023/10/03 00:48:54;;;;;;;27.10;12.60;;;;;;;15.80;100.00;98251.84;5074345;28;20294;-80
2023/10/03 00:51:22;;;;;;;25.83;12.80;;;;;;;15.74;100.00;98252.38;5073586;28;20231;-80
2023/10/03 00:53:51;;;;;;;29.33;12.90;;;;;;;15.70;100.00;98244.78;5074364;28;20265;-80
2023/10/03 00:56:19;;;;;;;29.00;12.20;;;;;;;15.66;100.00;98251.34;5074088;28;20294;-80
2023/10/03 00:58:45;;;;;;;27.37;12.80;;;;;;;15.60;100.00;98235.91;5074491;28;20230;-80
2023/10/03 01:01:12;;;;;;;29.97;13.30;;;;;;;15.56;100.00;98242.47;5074315;28;20710;-80
2023/10/03 01:03:39;;;;;;;27.37;12.70;;;;;;;15.53;100.00;98242.75;5073741;28;20735;-80
2023/10/03 01:06:09;;;;;;;27.23;13.43;;;;;;;15.49;100.00;98246.66;5073543;28;20219;-80
2023/10/03 01:08:38;;;;;;;28.53;13.40;;;;;;;15.47;100.00;98249.44;5073840;28;20231;-80
2023/10/03 01:11:05;;;;;;;32.27;13.70;;;;;;;15.42;100.00;98240.19;5073148;28;20254;-80
2023/10/03 01:13:32;;;;;;;29.33;13.73;;;;;;;15.37;100.00;98243.25;5073583;28;20241;-80
2023/10/03 01:15:59;;;;;;;28.13;13.77;;;;;;;15.34;100.00;98240.00;5073101;28;20220;-80
2023/10/03 01:18:29;;;;;;;25.80;12.57;;;;;;;15.29;100.00;98244.84;5073253;28;20332;-80
2023/10/03 01:21:00;;;;;;;27.37;12.57;;;;;;;15.25;100.00;98241.59;5076177;28;20231;-80
2023/10/03 01:23:31;;;;;;;28.87;13.33;;;;;;;15.22;100.00;98235.72;5075807;28;20249;-80
2023/10/03 01:25:58;;;;;;;25.00;12.30;;;;;;;15.16;100.00;98228.25;5076858;28;20214;-80
2023/10/03 01:28:25;;;;;;;26.53;12.80;;;;;;;15.14;100.00;98224.84;5076240;28;20223;-80
2023/10/03 01:30:52;;;;;;;27.30;12.23;;;;;;;15.10;100.00;98228.78;5076236;28;20284;-80
2023/10/03 01:33:18;;;;;;;25.80;12.70;;;;;;;15.06;100.00;98230.00;5076047;28;20215;-80
2023/10/03 01:35:45;;;;;;;28.60;12.20;;;;;;;14.99;100.00;98228.84;5076383;28;20246;-80
2023/10/03 01:38:14;;;;;;;25.43;11.60;;;;;;;14.96;100.00;98234.44;5076831;28;20306;-80
2023/10/03 01:40:42;;;;;;;26.03;12.30;;;;;;;14.94;100.00;98228.38;5076342;28;20298;-80
2023/10/03 01:43:09;;;;;;;29.57;13.43;;;;;;;14.93;100.00;98221.38;5075964;28;20723;-80
2023/10/03 01:45:35;;;;;;;28.17;11.73;;;;;;;14.89;100.00;98225.25;5075894;28;20207;-80
2023/10/03 01:48:05;;;;;;;27.30;12.00;;;;;;;14.85;100.00;98219.34;5075637;28;20238;-81
2023/10/03 01:50:33;;;;;;;29.73;13.40;;;;;;;14.79;100.00;98224.38;5075513;28;20298;-80
2023/10/03 01:53:00;;;;;;;28.07;12.63;;;;;;;14.77;100.00;98219.19;5075293;28;20701;-80
2023/10/03 01:55:27;;;;;;;28.03;11.83;;;;;;;14.74;100.00;98210.59;5075176;28;20250;-80
2023/10/03 01:57:55;;;;;;;27.50;12.60;;;;;;;14.72;100.00;98212.56;5075014;28;20622;-81
2023/10/03 02:00:24;;;;;;;25.47;12.17;;;;;;;14.65;100.00;98206.06;5075632;28;20207;-80
2023/10/03 02:02:51;;;;;;;27.27;13.00;;;;;;;14.59;100.00;98204.75;5075014;28;20211;-80
2023/10/03 02:05:21;;;;;;;27.43;12.43;;;;;;;14.61;100.00;98197.50;5075513;28;20568;-80
2023/10/03 02:07:47;;;;;;;30.17;13.67;;;;;;;14.75;100.00;98199.84;5074598;28;20211;-80
2023/10/03 02:10:14;;;;;;;32.50;13.70;;;;;;;14.89;100.00;98203.97;5074448;28;20207;-80
2023/10/03 02:12:48;;;;;;;28.30;12.80;;;;;;;14.98;100.00;98192.56;5074759;28;20313;-80
2023/10/03 02:15:20;;;;;;;29.53;12.87;;;;;;;14.96;100.00;98202.50;5074555;28;20214;-80
2023/10/03 02:17:49;;;;;;;27.90;13.13;;;;;;;15.05;100.00;98189.25;5075182;28;20533;-80
2023/10/03 02:20:20;;;;;;;27.93;13.20;;;;;;;15.09;100.00;98185.31;5075071;28;20246;-80
2023/10/03 02:22:53;;;;;;;28.50;13.30;;;;;;;15.18;100.00;98181.03;5074903;28;20237;-80
2023/10/03 02:25:21;;;;;;;30.13;13.23;;;;;;;15.21;100.00;98172.78;5074220;28;20218;-80
2023/10/03 02:27:48;;;;;;;28.87;13.03;;;;;;;15.22;100.00;98175.28;5074801;28;20203;-80
2023/10/03 02:30:23;;;;;;;28.60;12.30;;;;;;;15.33;100.00;98177.91;5075237;28;20258;-81
2023/10/03 02:32:52;;;;;;;31.20;12.33;;;;;;;15.29;100.00;98170.28;5073837;28;20226;-80
2023/10/03 02:35:22;;;;;;;24.90;11.77;;;;;;;15.25;100.00;98168.84;5074892;28;20245;-80
2023/10/03 02:37:51;;;;;;;26.97;12.67;;;;;;;15.20;100.00;98168.41;5074091;28;20240;-80
2023/10/03 02:40:22;;;;;;;24.70;11.77;;;;;;;15.13;100.00;98159.28;5073639;28;20203;-80
2023/10/03 02:42:51;;;;;;;25.37;12.87;;;;;;;15.14;100.00;98150.31;5074507;28;20228;-80
2023/10/03 02:45:22;;;;;;;24.70;12.17;;;;;;;15.15;100.00;98157.34;5074560;28;20239;-80
2023/10/03 02:47:50;;;;;;;27.50;12.27;;;;;;;15.17;100.00;98160.69;5074759;28;20203;-80
2023/10/03 02:50:17;;;;;;;24.70;12.63;;;;;;;15.17;100.00;98155.38;5074461;28;20261;-80
2023/10/03 02:52:45;;;;;;;27.90;12.60;;;;;;;15.18;100.00;98159.72;5074702;28;20296;-80
2023/10/03 02:55:14;;;;;;;27.30;12.63;;;;;;;15.24;100.00;98148.53;5074650;28;20689;-80
2023/10/03 02:57:40;;;;;;;24.50;12.53;;;;;;;15.21;100.00;98144.31;5074774;28;20203;-80
2023/10/03 03:00:12;;;;;;;27.13;12.37;;;;;;;15.14;100.00;98145.84;5074755;28;20205;-80
2023/10/03 03:02:41;;;;;;;27.20;11.93;;;;;;;15.07;100.00;98144.69;5073430;28;20292;-80
2023/10/03 03:05:10;;;;;;;28.53;12.43;;;;;;;15.08;100.00;98145.53;5074232;28;20257;-80
2023/10/03 03:07:37;;;;;;;27.73;12.13;;;;;;;15.05;100.00;98145.81;5073880;28;20211;-80
2023/10/03 03:10:05;;;;;;;26.63;12.80;;;;;;;15.07;100.00;98141.19;5074109;28;20239;-80
2023/10/03 03:12:35;;;;;;;23.80;11.67;;;;;;;15.06;100.00;98134.16;5073833;28;20755;-80
2023/10/03 03:15:02;;;;;;;27.40;12.23;;;;;;;15.07;100.00;98149.16;5074038;28;20284;-80
2023/10/03 03:17:29;;;;;;;27.43;11.80;;;;;;;15.06;100.00;98147.47;5074125;28;20203;-80
2023/10/03 03:19:59;;;;;;;25.30;11.57;;;;;;;15.05;100.00;98148.47;5074387;28;20204;-80
2023/10/03 03:22:26;;;;;;;26.30;11.37;;;;;;;15.02;100.00;98162.06;5074175;28;20235;-80
2023/10/03 03:24:58;;;;;;;27.50;12.47;;;;;;;15.02;100.00;98154.88;5075913;28;20282;-80
2023/10/03 03:27:26;;;;;;;23.57;12.40;;;;;;;15.08;100.00;98156.16;5078396;28;20805;-80
2023/10/03 03:30:15;;;;;;;22.80;12.00;;;;;;;15.07;100.00;98144.69;5075335;28;20235;-81
2023/10/03 03:32:42;;;;;;;26.90;12.60;;;;;;;15.05;100.00;98153.78;5085579;28;20224;-80
2023/10/03 03:35:10;;;;;;;28.27;12.43;;;;;;;15.00;100.00;98150.69;5086020;28;20204;-80
2023/10/03 03:37:38;;;;;;;20.60;10.73;;;;;;;15.00;100.00;98148.00;5085483;28;20204;-81
2023/10/03 03:40:11;;;;;;;31.83;12.87;;;;;;;15.04;100.00;98144.13;5079845;28;20207;-81
2023/10/03 03:42:38;;;;;;;23.27;11.43;;;;;;;15.00;100.00;98148.88;5088735;28;20670;-80
2023/10/03 03:45:06;;;;;;;25.87;12.37;;;;;;;14.98;100.00;98148.13;5080075;28;20226;-81
2023/10/03 03:47:33;;;;;;;27.33;11.83;;;;;;;14.96;100.00;98158.06;5079541;28;20204;-81
2023/10/03 03:50:01;;;;;;;25.40;11.97;;;;;;;14.98;100.00;98148.13;5080607;28;20227;-81
2023/10/03 03:52:32;;;;;;;27.30;12.63;;;;;;;14.97;100.00;98149.13;5077043;28;20296;-79
2023/10/03 03:55:03;;;;;;;24.73;11.87;;;;;;;14.99;100.00;98151.66;5077226;28;20583;-80
2023/10/03 03:57:30;;;;;;;24.57;11.63;;;;;;;15.01;100.00;98149.69;5077160;28;20302;-80
2023/10/03 03:59:57;;;;;;;22.70;11.23;;;;;;;14.95;100.00;98152.88;5076414;28;20203;-80
2023/10/03 04:02:24;;;;;;;22.83;11.07;;;;;;;14.95;100.00;98142.22;5076979;28;20277;-80
2023/10/03 04:04:50;;;;;;;22.00;10.67;;;;;;;14.89;100.00;98140.09;5076347;28;20211;-80
2023/10/03 04:07:17;;;;;;;25.27;11.63;;;;;;;14.85;100.00;98144.03;5076417;28;20203;-80
2023/10/03 04:09:45;;;;;;;24.03;11.53;;;;;;;14.83;100.00;98140.63;5076332;28;20231;-80
2023/10/03 04:12:13;;;;;;;24.67;11.33;;;;;;;14.82;100.00;98133.63;5076413;28;20231;-80
2023/10/03 04:14:39;;;;;;;23.07;12.33;;;;;;;14.80;100.00;98135.59;5076891;28;20207;-80
2023/10/03 04:17:08;;;;;;;24.33;11.90;;;;;;;14.78;100.00;98137.56;5076586;28;20210;-80
2023/10/03 04:19:35;;;;;;;25.47;11.50;;;;;;;14.79;100.00;98133.91;5076271;28;20284;-80
2023/10/03 04:22:01;;;;;;;25.27;11.70;;;;;;;14.81;100.00;98129.28;5075915;28;20228;-80
2023/10/03 04:24:29;;;;;;;28.37;12.17;;;;;;;14.84;100.00;98121.88;5076950;28;20213;-80
2023/10/03 04:26:58;;;;;;;25.07;11.43;;;;;;;14.84;100.00;98121.06;5077099;28;20377;-80
2023/10/03 04:29:25;;;;;;;25.23;11.90;;;;;;;14.88;100.00;98130.44;5076539;28;20237;-79
2023/10/03 04:31:51;;;;;;;22.93;11.37;;;;;;;14.88;100.00;98127.78;5076352;28;20227;-80
2023/10/03 04:34:19;;;;;;;23.53;11.03;;;;;;;14.89;100.00;98129.47;5076580;28;20238;-80
2023/10/03 04:36:47;;;;;;;20.63;10.73;;;;;;;14.94;100.00;98132.56;5076767;28;20207;-80
2023/10/03 04:39:13;;;;;;;26.43;10.73;;;;;;;15.03;100.00;98121.97;5076274;28;20203;-80
2023/10/03 04:41:43;;;;;;;21.83;10.67;;;;;;;15.08;100.00;98124.22;5076168;28;20231;-80
2023/10/03 04:44:15;;;;;;;21.80;10.83;;;;;;;15.09;100.00;98126.75;5076583;28;20651;-79
2023/10/03 04:46:44;;;;;;;22.63;11.43;;;;;;;15.05;100.00;98114.72;5076533;28;20188;-80
2023/10/03 04:49:10;;;;;;;23.40;10.73;;;;;;;15.09;100.00;98126.75;5076072;28;20318;-80
2023/10/03 04:51:37;;;;;;;21.00;10.17;;;;;;;15.10;100.00;98128.44;5076122;28;20231;-84
2023/10/03 04:54:03;;;;;;;22.40;10.77;;;;;;;15.09;100.00;98125.94;5079080;28;20254;-84
2023/10/03 04:56:30;;;;;;;21.77;10.93;;;;;;;15.18;100.00;98122.44;5075851;28;20208;-79
2023/10/03 04:58:56;;;;;;;21.83;11.13;;;;;;;15.16;100.00;98111.09;5073167;28;20207;-79
2023/10/03 05:01:24;;;;;;;21.50;11.03;;;;;;;15.22;100.00;98116.72;5074820;28;20227;-78
2023/10/03 05:03:51;;;;;;;23.27;11.03;;;;;;;15.25;100.00;98115.59;5075541;28;20211;-79
2023/10/03 05:06:17;;;;;;;20.33;10.20;;;;;;;15.32;100.00;98111.41;5074876;28;20211;-79
2023/10/03 05:08:44;;;;;;;21.43;10.00;;;;;;;15.31;100.00;98117.72;5075106;28;20279;-79
2023/10/03 05:11:13;;;;;;;22.10;10.73;;;;;;;15.34;100.00;98110.34;5074022;28;20226;-79
2023/10/03 05:13:43;;;;;;;20.63;10.87;;;;;;;15.33;100.00;98105.19;5074194;28;20298;-79
2023/10/03 05:16:09;;;;;;;23.37;10.70;;;;;;;15.36;100.00;98103.06;5074573;28;20225;-78
2023/10/03 05:18:39;;;;;;;23.63;11.63;;;;;;;15.44;100.00;98103.22;5075106;28;20242;-79
2023/10/03 05:21:06;;;;;;;19.97;10.07;;;;;;;15.47;100.00;98110.09;5075439;28;20223;-81
2023/10/03 05:23:33;;;;;;;20.77;10.30;;;;;;;15.49;100.00;98111.66;5078752;28;20553;-80
2023/10/03 05:26:02;;;;;;;17.73;9.90;;;;;;;15.48;100.00;98112.63;5076515;28;20215;-80
2023/10/03 05:28:29;;;;;;;18.97;9.97;;;;;;;15.44;100.00;98116.53;5076353;28;20250;-80
2023/10/03 05:30:58;;;;;;;20.57;9.70;;;;;;;15.42;100.00;98118.50;5075938;28;20258;-80
2023/10/03 05:33:24;;;;;;;19.53;10.10;;;;;;;15.42;100.00;98113.19;5076033;28;20207;-80
2023/10/03 05:35:52;;;;;;;19.40;9.43;;;;;;;15.40;100.00;98117.78;5075967;28;20215;-80
2023/10/03 05:38:19;;;;;;;19.67;9.57;;;;;;;15.40;100.00;98111.63;5075897;28;20208;-80
2023/10/03 05:40:47;;;;;;;20.50;9.50;;;;;;;15.45;100.00;98115.56;5075725;28;20235;-80
2023/10/03 05:43:13;;;;;;;21.20;9.67;;;;;;;15.48;100.00;98111.78;5074964;28;20231;-80
2023/10/03 05:45:40;;;;;;;16.83;8.47;;;;;;;15.48;100.00;98117.97;5076981;28;20207;-83
2023/10/03 05:48:07;;;;;;;20.10;9.17;;;;;;;15.52;100.00;98118.53;5078623;28;20211;-83
2023/10/03 05:50:34;;;;;;;20.53;9.20;;;;;;;15.55;100.00;98121.78;5077350;28;20231;-83
2023/10/03 05:53:02;;;;;;;20.83;9.90;;;;;;;15.65;100.00;98116.44;5077804;28;20211;-83
2023/10/03 05:55:29;;;;;;;17.67;8.53;;;;;;;15.70;100.00;98128.38;5077390;28;20215;-83
2023/10/03 05:57:55;;;;;;;21.03;10.03;;;;;;;15.80;100.00;98123.06;5077953;28;20237;-83
2023/10/03 06:00:22;;;;;;;18.27;8.67;;;;;;;15.89;100.00;98125.72;5076833;28;20210;-83
2023/10/03 06:02:50;;;;;;;19.60;9.40;;;;;;;16.00;100.00;98132.78;5076984;28;20235;-82
2023/10/03 06:05:17;;;;;;;17.90;9.13;;;;;;;16.02;100.00;98124.47;5077395;28;20211;-83
2023/10/03 06:07:44;;;;;;;18.07;9.77;;;;;;;16.09;100.00;98133.59;5077318;28;20208;-83
2023/10/03 06:10:13;;;;;;;19.73;9.70;;;;;;;16.10;100.00;98127.28;5077354;28;20234;-83
2023/10/03 06:12:40;;;;;;;19.17;9.23;;;;;;;16.14;100.00;98133.19;5077694;28;20320;-83
2023/10/03 06:15:07;;;;;;;17.83;9.33;;;;;;;16.18;100.00;98138.13;5077295;28;20272;-83
2023/10/03 06:17:34;;;;;;;18.90;9.70;;;;;;;16.22;100.00;98136.81;5077534;28;20560;-83
2023/10/03 06:20:03;;;;;;;18.23;8.90;;;;;;;16.31;100.00;98136.00;5077265;28;20317;-83
2023/10/03 06:22:29;;;;;;;19.13;9.47;;;;;;;16.42;100.00;98133.22;5077132;28;20223;-83
2023/10/03 06:24:57;;;;;;;18.27;9.20;;;;;;;16.47;100.00;98136.28;5077154;28;20208;-83
2023/10/03 06:27:26;;;;;;;13.77;7.80;;;;;;;16.52;100.00;98134.03;5077187;28;20207;-83
2023/10/03 06:29:53;;;;;;;17.50;8.47;;;;;;;16.58;100.00;98128.13;5076974;28;20292;-83
2023/10/03 06:32:19;;;;;;;15.90;8.40;;;;;;;16.67;99.83;98148.63;5077072;28;20314;-83
2023/10/03 06:34:46;;;;;;;18.70;8.63;;;;;;;16.78;98.60;98140.47;5076889;28;20207;-83
2023/10/03 06:37:12;;;;;;;15.20;8.00;;;;;;;16.91;97.14;98138.31;5077691;28;20214;-83
2023/10/03 06:39:39;;;;;;;17.33;8.50;;;;;;;17.01;96.28;98136.44;5077812;28;20214;-83
2023/10/03 06:42:06;;;;;;;15.20;8.20;;;;;;;17.08;95.97;98131.38;5076803;28;20281;-83
2023/10/03 06:44:36;;;;;;;19.73;8.73;;;;;;;17.17;95.82;98144.69;5076618;28;20245;-83
2023/10/03 06:47:03;;;;;;;15.63;7.70;;;;;;;17.43;93.50;98140.38;5077076;28;20223;-83
2023/10/03 06:49:31;;;;;;;17.40;8.37;;;;;;;17.53;92.38;98138.50;5076476;28;20257;-83
2023/10/03 06:52:01;;;;;;;16.40;7.80;;;;;;;17.65;92.08;98147.16;5075654;28;20224;-84
2023/10/03 06:54:29;;;;;;;18.50;9.17;;;;;;;17.80;91.84;98145.66;5078698;28;20228;-84
2023/10/03 06:56:56;;;;;;;18.83;8.10;;;;;;;17.96;91.04;98125.28;5077521;28;20203;-83
2023/10/03 06:59:22;;;;;;;15.27;8.50;;;;;;;18.12;90.35;98136.16;5076469;28;20207;-82
2023/10/03 07:01:50;;;;;;;15.83;8.20;;;;;;;18.28;88.75;98136.28;5075169;28;20231;-83
2023/10/03 07:04:17;;;;;;;16.10;8.67;;;;;;;18.48;87.36;98137.00;5074944;28;20207;-84
2023/10/03 07:06:44;;;;;;;15.10;8.23;;;;;;;18.66;86.73;98138.63;5076295;28;20204;-83
2023/10/03 07:09:10;;;;;;;16.80;8.60;;;;;;;18.80;85.73;98139.91;5077597;28;20238;-82
2023/10/03 07:11:37;;;;;;;13.57;7.23;;;;;;;18.97;85.14;98129.16;5078188;28;20237;-84
2023/10/03 07:14:03;;;;;;;13.67;7.97;;;;;;;19.13;83.87;98125.75;5078328;28;20214;-84
2023/10/03 07:16:37;;;;;;;14.27;8.47;;;;;;;19.27;82.75;98120.63;5078073;28;20216;-84
2023/10/03 07:19:05;;;;;;;14.73;8.23;;;;;;;19.44;81.58;98121.56;5078244;28;20210;-84
2023/10/03 07:21:34;;;;;;;15.20;8.33;;;;;;;19.64;80.08;98123.81;5079618;28;20226;-85
2023/10/03 07:24:00;;;;;;;13.43;7.30;;;;;;;19.85;78.76;98121.53;5079598;28;20207;-84
2023/10/03 07:26:27;;;;;;;15.90;8.13;;;;;;;20.01;76.42;98118.91;5080456;28;20217;-85
2023/10/03 07:28:57;;;;;;;11.77;6.67;;;;;;;20.18;76.06;98117.94;5079948;28;20233;-80
2023/10/03 07:31:25;;;;;;;14.00;7.90;;;;;;;20.32;74.99;98108.41;5079796;28;20235;-82
2023/10/03 07:33:53;;;;;;;14.67;7.77;;;;;;;20.48;73.85;98108.41;5079694;28;20226;-83
2023/10/03 07:36:21;;;;;;;14.37;7.53;;;;;;;20.67;71.88;98105.38;5079237;28;20207;-82
2023/10/03 07:38:48;;;;;;;13.23;7.33;;;;;;;20.83;70.86;98105.34;5078127;28;20207;-81
2023/10/03 07:41:17;;;;;;;10.70;6.47;;;;;;;20.99;70.41;98097.28;5078107;28;20223;-83
2023/10/03 07:43:47;;;;;;;13.53;7.30;;;;;;;21.15;68.98;98100.78;5078727;28;20212;-81
2023/10/03 07:46:14;;;;;;;12.07;6.60;;;;;;;21.31;67.76;98098.03;5078390;28;20727;-82
2023/10/03 07:48:42;;;;;;;11.73;6.53;;;;;;;21.53;66.13;98091.88;5078584;28;20207;-81
2023/10/03 07:51:16;;;;;;;10.23;6.57;;;;;;;21.72;64.68;98083.44;5079061;28;20255;-83
2023/10/03 07:53:43;;;;;;;12.73;6.53;;;;;;;21.89;63.42;98074.22;5085792;28;20223;-83
2023/10/03 07:56:16;;;;;;;9.77;5.90;;;;;;;22.04;63.03;98077.84;5084890;28;20346;-84
2023/10/03 07:58:44;;;;;;;9.70;5.90;;;;;;;22.17;62.54;98078.09;5080159;28;20203;-83
2023/10/03 08:01:13;;;;;;;9.57;6.17;;;;;;;22.33;61.66;98080.66;5081655;28;20622;-81
2023/10/03 08:03:40;;;;;;;11.70;5.97;;;;;;;22.47;61.51;98082.59;5079488;28;20231;-82
2023/10/03 08:06:07;;;;;;;11.00;6.87;;;;;;;22.60;61.02;98081.97;5071825;28;20239;-81
2023/10/03 08:08:34;;;;;;;8.57;5.60;;;;;;;22.72;59.86;98086.75;5058948;28;20220;-81
2023/10/03 08:11:06;;;;;;;9.30;5.77;;;;;;;22.87;60.08;98079.50;5073527;28;20251;-79
2023/10/03 08:13:38;;;;;;;9.80;5.93;;;;;;;23.03;59.46;98090.13;5070579;28;20211;-79
2023/10/03 08:16:05;;;;;;;8.03;5.50;;;;;;;23.26;58.46;98080.13;5060929;28;20220;-81
2023/10/03 08:18:36;;;;;;;9.67;5.50;;;;;;;23.46;57.93;98075.84;5059292;28;20253;-80
2023/10/03 08:21:03;;;;;;;8.43;5.57;;;;;;;23.70;56.94;98078.22;5058165;28;20246;-80
2023/10/03 08:23:32;;;;;;;10.33;5.93;;;;;;;23.92;56.85;98079.13;5072308;28;20292;-81
2023/10/03 08:26:01;;;;;;;8.20;5.70;;;;;;;24.09;56.32;98081.38;5071300;28;20212;-81
2023/10/03 08:28:30;;;;;;;8.50;5.47;;;;;;;24.18;55.52;98072.16;5072154;28;20249;-81
2023/10/03 08:30:57;;;;;;;7.43;5.20;;;;;;;24.28;54.94;98061.88;5053552;28;20228;-82
2023/10/03 08:33:23;;;;;;;8.37;5.73;;;;;;;24.29;54.80;98063.53;5059788;28;20222;-81
2023/10/03 08:35:50;;;;;;;7.93;4.77;;;;;;;24.32;54.19;98060.44;5072441;28;20207;-81
2023/10/03 08:38:19;;;;;;;8.70;4.80;;;;;;;24.33;54.08;98064.00;5072140;28;20233;-81
2023/10/03 08:40:49;;;;;;;7.43;4.93;;;;;;;24.36;53.94;98075.25;5062300;28;20235;-80
2023/10/03 08:43:16;;;;;;;6.53;4.83;;;;;;;24.31;54.12;98080.38;5071714;28;20211;-80
2023/10/03 08:45:52;;;;;;;8.83;5.10;;;;;;;24.29;53.03;98068.09;5070754;28;20622;-80
2023/10/03 08:48:25;;;;;;;8.00;4.93;;;;;;;24.44;53.88;98091.31;5074970;28;20254;-80
2023/10/03 08:50:56;;;;;;;7.73;5.10;;;;;;;24.50;52.89;98093.25;5058852;28;20244;-80
2023/10/03 08:53:28;;;;;;;6.87;4.57;;;;;;;24.46;52.95;98094.69;5054766;28;20248;-80
2023/10/03 08:55:58;;;;;;;7.17;4.90;;;;;;;24.52;53.00;98102.00;5065092;28;20204;-80
2023/10/03 08:58:26;;;;;;;7.43;5.00;;;;;;;24.57;53.27;98094.16;5065624;28;20211;-80
2023/10/03 09:00:59;;;;;;;7.28;5.03;;;;;;;24.68;53.16;98092.81;5072989;28;20434;-80
2023/10/03 09:03:29;;;;;;;7.60;5.33;;;;;;;24.82;52.62;98094.59;5077331;28;20213;-80
2023/10/03 09:05:58;;;;;;;6.40;4.93;;;;;;;24.99;52.73;98093.28;5078292;28;20207;-81
2023/10/03 09:08:26;;;;;;;6.93;4.50;;;;;;;25.21;52.26;98098.44;5058426;28;20212;-80
2023/10/03 09:10:53;;;;;;;12.27;4.60;;;;;;;25.42;51.62;98098.34;5075863;28;20254;-80
2023/10/03 09:13:27;;;;;;;6.07;4.20;;;;;;;25.65;51.34;98092.66;5073423;28;20269;-80
2023/10/03 09:16:08;;;;;;;6.73;4.70;;;;;;;25.79;51.12;98095.22;5066578;28;20252;-80
2023/10/03 09:18:40;;;;;;;5.13;4.10;;;;;;;25.98;51.21;98096.38;5072798;28;20262;-82
2023/10/03 09:21:07;;;;;;;6.13;4.20;;;;;;;26.15;50.93;98090.38;5073904;28;20321;-80
2023/10/03 09:23:39;;;;;;;5.33;3.67;;;;;;;26.22;50.05;98083.09;5068626;28;20203;-80
2023/10/03 09:26:08;;;;;;;6.83;4.10;;;;;;;26.23;50.62;98098.31;5067153;28;20246;-80
2023/10/03 09:28:36;;;;;;;5.30;4.03;;;;;;;26.29;49.74;98083.97;5068125;28;20211;-80
2023/10/03 09:31:08;;;;;;;6.40;4.07;;;;;;;26.23;49.05;98084.78;5065720;28;20641;-80
2023/10/03 09:33:38;;;;;;;7.87;4.03;;;;;;;26.26;50.01;98084.34;5071449;28;20208;-80
2023/10/03 09:36:06;;;;;;;7.93;4.70;;;;;;;26.29;49.28;98081.25;5072603;28;20207;-82
2023/10/03 09:38:44;;;;;;;7.60;4.30;;;;;;;26.30;49.32;98084.78;5071002;28;20207;-79
2023/10/03 09:41:17;;;;;;;7.73;4.27;;;;;;;26.29;48.59;98077.69;5061285;28;20615;-80
2023/10/03 09:43:49;;;;;;;8.30;3.87;;;;;;;26.18;49.35;98072.88;5073020;28;20265;-80
2023/10/03 09:46:23;;;;;;;7.27;3.90;;;;;;;26.16;48.89;98073.06;5056633;28;20590;-80
2023/10/03 09:48:53;;;;;;;6.40;4.13;;;;;;;26.13;48.67;98072.66;5065641;28;20202;-80
2023/10/03 09:51:21;;;;;;;7.00;3.80;;;;;;;26.20;48.82;98068.91;5069824;28;20238;-80
2023/10/03 09:53:48;;;;;;;6.37;3.90;;;;;;;26.40;49.09;98069.78;5075662;28;20213;-80
2023/10/03 09:56:19;;;;;;;6.63;4.27;;;;;;;26.53;49.05;98064.41;5075843;28;20290;-82
2023/10/03 09:58:48;;;;;;;5.33;3.70;;;;;;;26.76;48.91;98064.81;5075684;28;20207;-82
2023/10/03 10:01:18;;;;;;;6.73;4.17;;;;;;;27.00;48.24;98045.19;5074681;28;20289;-80
2023/10/03 10:03:48;;;;;;;7.00;4.13;;;;;;;26.95;47.61;98030.59;5075689;28;20275;-83
2023/10/03 10:06:24;;;;;;;5.72;3.97;;;;;;;27.07;48.33;98040.59;5075735;28;20211;-82
2023/10/03 10:08:58;;;;;;;6.33;3.90;;;;;;;27.23;47.95;98034.75;5074781;28;20229;-83
2023/10/03 10:11:26;;;;;;;7.07;4.07;;;;;;;27.26;47.35;98025.34;5075220;28;20288;-83
2023/10/03 10:14:08;;;;;;;6.27;4.17;;;;;;;27.26;47.58;98031.59;5075498;28;20211;-81
2023/10/03 10:16:35;;;;;;;5.80;4.18;;;;;;;27.45;48.38;98036.16;5075342;28;20219;-82
2023/10/03 10:19:04;;;;;;;5.47;4.20;;;;;;;27.46;47.01;98019.63;5075411;28;20546;-80
2023/10/03 10:21:32;;;;;;;7.43;4.50;;;;;;;27.52;47.85;98047.81;5074764;28;20255;-82
2023/10/03 10:24:24;;;;;;;5.67;4.37;;;;;;;27.34;47.33;98040.34;5075175;28;20264;-82
2023/10/03 10:26:53;;;;;;;6.10;4.20;;;;;;;27.28;48.16;98032.22;5078958;28;20226;-83
2023/10/03 10:29:21;;;;;;;5.83;4.40;;;;;;;27.31;48.13;98041.84;5078997;28;20234;-83
2023/10/03 10:31:57;;;;;;;6.72;4.00;;;;;;;27.21;47.45;98031.41;5079881;28;20314;-83
2023/10/03 10:34:46;;;;;;;5.80;4.47;;;;;;;27.26;48.15;98034.31;5080201;28;20215;-83
2023/10/03 10:37:17;;;;;;;6.18;4.70;;;;;;;27.32;47.85;98038.06;5079647;28;20203;-83
2023/10/03 10:40:09;;;;;;;8.55;4.15;;;;;;;27.28;47.32;98034.94;5078860;28;20218;-84
2023/10/03 10:43:06;;;;;;;6.63;4.35;;;;;;;27.27;48.33;98041.44;5079016;28;20219;-83
2023/10/03 10:45:39;;;;;;;6.32;3.92;;;;;;;27.52;47.67;98040.50;5076271;28;20221;-83
2023/10/03 10:48:07;;;;;;;7.57;4.33;;;;;;;27.69;47.36;98040.88;5079593;28;20210;-81
2023/10/03 10:51:09;;;;;;;5.43;3.95;;;;;;;27.71;46.86;98030.59;5080505;28;20217;-81
2023/10/03 10:53:38;;;;;;;4.90;4.03;;;;;;;27.93;46.86;98031.97;5081315;28;20187;-81
2023/10/03 10:56:08;;;;;;;8.25;4.53;;;;;;;27.93;46.55;98026.53;5079397;28;20214;-82
2023/10/03 10:58:45;;;;;;;5.70;4.40;;;;;;;27.93;47.02;98040.97;5080487;28;20229;-81
2023/10/03 11:01:13;;;;;;;5.65;4.35;;;;;;;27.95;47.16;98038.84;5081622;28;20576;-81
2023/10/03 11:03:39;;;;;;;5.70;4.60;;;;;;;28.00;47.13;98049.09;5081231;28;20243;-81
2023/10/03 11:06:16;;;;;;;5.90;4.60;;;;;;;27.88;46.96;98039.97;5078577;28;20207;-83
2023/10/03 11:08:47;;;;;;;7.05;4.35;;;;;;;27.92;46.62;98035.75;5081548;28;20211;-80
2023/10/03 11:11:13;;;;;;;6.78;4.68;;;;;;;27.91;47.01;98050.38;5078804;28;20326;-80
2023/10/03 11:13:48;;;;;;;4.55;3.85;;;;;;;27.81;47.37;98059.00;5079550;28;20211;-80
2023/10/03 11:16:28;;;;;;;7.45;4.45;;;;;;;27.56;48.02;98055.31;5077982;28;20683;-81
2023/10/03 11:18:56;;;;;;;6.07;4.37;;;;;;;27.55;47.70;98050.94;5077851;28;20211;-80
2023/10/03 11:21:25;;;;;;;5.63;4.57;;;;;;;27.52;47.39;98045.09;5076975;28;20664;-79
2023/10/03 11:24:13;;;;;;;5.60;4.38;;;;;;;27.45;47.65;98052.44;5079411;28;20264;-82
2023/10/03 11:26:44;;;;;;;5.63;4.45;;;;;;;27.40;47.63;98052.25;5079322;28;20573;-82
2023/10/03 11:29:11;;;;;;;5.30;4.35;;;;;;;27.43;48.30;98054.50;5078799;28;20211;-81